West Springfield, Virginia
Current Conditions -  °F | °C
As of 8:58 PM on Monday 20 Oct 2014 (Local Time) from KDAA Reporting Station
Broken Clouds Broken Clouds  
Wind Chill: 53°   Ceiling: 18000
Heat Index: 53°   Visibility: 10mi
Dew Point: 49°   Wind: 3mph
Humidity: 88%   Direction: 130°SE
Pressure: 29.96"   Gusts: NA
Location:  38.7756°N, 77.232°W
Report Text: KDAA 210058Z AUTO 13003KT 10SM BKN180 12/10 A2996 RMK AO2 SLP149 T01160096
Loading
Personal Weather Stations






























Interactive Weather Map
Tropical Storm Tracking
New forecast layout! Learn more

10-Day Weather Forecast

Advertisements
Track Severe Weather on mobile